Time;durP1;ratioP1;P1;durP2;ratioP2;P2;SDS_P1;SDS_P2;PMS_P1;PMS_P2;Temp;Humidity;BMP_temperature;BMP_pressure;BME280_temperature;BME280_humidity;BME280_pressure;Samples;Min_cycle;Max_cycle;Signal;HPM_P1;HPM_P2
2022/06/25 00:01:05;;;;;;;4.67;3.17;;;21.20;99.90;;;;;;2585813;54;20767;31
2022/06/25 00:03:44;;;;;;;4.03;2.88;;;21.20;99.90;;;;;;2584941;54;20034;31
2022/06/25 00:06:18;;;;;;;3.75;2.80;;;21.10;99.90;;;;;;2585692;54;20030;31
2022/06/25 00:08:59;;;;;;;3.70;2.78;;;21.10;99.90;;;;;;2585726;54;20765;31
2022/06/25 00:14:23;;;;;;;4.18;3.10;;;21.10;99.90;;;;;;2604076;46;20916;31
2022/06/25 00:16:58;;;;;;;3.75;3.15;;;21.20;99.90;;;;;;2604183;47;20037;31
2022/06/25 00:19:33;;;;;;;4.43;2.72;;;21.10;99.90;;;;;;2586024;54;20063;31
2022/06/25 00:22:08;;;;;;;5.03;2.88;;;21.20;99.90;;;;;;2585700;54;20998;31
2022/06/25 00:24:41;;;;;;;7.95;3.00;;;21.10;99.90;;;;;;2585771;54;20028;31
2022/06/25 00:27:17;;;;;;;4.80;2.90;;;21.10;99.90;;;;;;2604261;46;20030;31
2022/06/25 00:29:51;;;;;;;6.82;2.55;;;21.10;99.90;;;;;;2585642;54;20022;31
2022/06/25 00:32:25;;;;;;;3.50;2.60;;;21.10;99.90;;;;;;2585901;54;20045;31
2022/06/25 00:34:58;;;;;;;3.30;2.40;;;21.10;99.90;;;;;;2585985;54;20026;31
2022/06/25 00:37:32;;;;;;;6.20;3.20;;;21.00;99.90;;;;;;2585557;54;20026;31
2022/06/25 00:40:09;;;;;;;5.00;3.20;;;21.10;99.90;;;;;;2585757;54;20034;31
2022/06/25 00:42:42;;;;;;;5.47;2.67;;;21.10;99.90;;;;;;2585556;54;20094;31
2022/06/25 00:45:18;;;;;;;5.87;2.87;;;21.10;99.90;;;;;;2585549;54;20948;31
2022/06/25 00:47:53;;;;;;;3.97;2.65;;;21.00;99.90;;;;;;2603981;46;20053;31
2022/06/25 00:50:26;;;;;;;4.70;2.75;;;21.10;99.90;;;;;;2602799;46;20457;31
2022/06/25 00:53:00;;;;;;;6.70;2.80;;;21.10;99.90;;;;;;2584769;54;20093;31
2022/06/25 00:55:35;;;;;;;3.90;2.70;;;21.00;99.90;;;;;;2585335;54;21145;31
2022/06/25 00:58:12;;;;;;;3.60;2.67;;;21.00;99.90;;;;;;2585470;54;20966;31
2022/06/25 01:00:49;;;;;;;4.83;2.90;;;20.90;99.90;;;;;;2585676;54;20800;31
2022/06/25 01:03:25;;;;;;;3.38;2.47;;;20.90;99.90;;;;;;2603224;46;20899;31
2022/06/25 01:06:01;;;;;;;4.17;2.33;;;20.90;99.90;;;;;;2585643;54;20077;31
2022/06/25 01:08:37;;;;;;;4.57;2.88;;;20.90;99.90;;;;;;2585472;54;20995;31
2022/06/25 01:11:13;;;;;;;4.43;2.80;;;20.90;99.90;;;;;;2585256;54;20821;31
2022/06/25 01:13:46;;;;;;;7.57;3.08;;;20.90;99.90;;;;;;2603905;46;20882;31
2022/06/25 01:16:21;;;;;;;4.63;2.72;;;20.90;99.90;;;;;;2585589;54;20029;31
2022/06/25 01:18:57;;;;;;;4.10;2.70;;;21.00;99.90;;;;;;2585643;54;20030;31
2022/06/25 01:21:30;;;;;;;5.30;2.85;;;21.00;99.90;;;;;;2585693;54;20955;31
2022/06/25 01:24:06;;;;;;;7.82;3.30;;;21.00;99.90;;;;;;2585495;54;20053;31
2022/06/25 01:26:39;;;;;;;;;;;21.00;99.90;;;;;;2683954;39;20985;31
2022/06/25 01:29:11;;;;;;;4.90;2.58;;;20.90;99.90;;;;;;2585580;54;21016;31
2022/06/25 01:31:44;;;;;;;4.25;2.75;;;20.90;99.90;;;;;;2604279;46;20886;31
2022/06/25 01:34:19;;;;;;;3.90;2.97;;;20.80;99.90;;;;;;2585453;54;20878;31
2022/06/25 01:36:54;;;;;;;3.00;2.63;;;20.90;99.90;;;;;;2603922;46;20911;31
2022/06/25 01:39:33;;;;;;;4.90;2.80;;;20.90;99.90;;;;;;2585504;54;20765;31
2022/06/25 01:42:58;;;;;;;10.68;3.85;;;20.80;99.90;;;;;;2585525;54;20058;31
2022/06/25 01:45:05;;;;;;;5.80;3.50;;;20.90;99.90;;;;;;2585751;54;20027;31
2022/06/25 01:47:37;;;;;;;2.60;2.28;;;20.90;99.90;;;;;;2585574;54;20922;31
2022/06/25 01:50:10;;;;;;;7.47;2.78;;;20.80;99.90;;;;;;2585701;54;20048;31
2022/06/25 01:52:46;;;;;;;4.10;2.80;;;20.80;99.90;;;;;;2584551;54;20053;31
2022/06/25 01:55:21;;;;;;;3.40;2.70;;;20.80;99.90;;;;;;2585595;54;20037;31
2022/06/25 01:57:54;;;;;;;;;;;20.80;99.90;;;;;;2603925;46;21142;31
2022/06/25 02:00:29;;;;;;;3.85;2.90;;;20.70;99.90;;;;;;2585554;54;20694;31
2022/06/25 02:03:14;;;;;;;4.63;2.75;;;20.80;99.90;;;;;;2585409;54;20030;31
2022/06/25 02:06:01;;;;;;;3.05;2.60;;;20.70;99.90;;;;;;2585225;54;20940;31
2022/06/25 02:08:34;;;;;;;6.18;3.47;;;20.70;99.90;;;;;;2585080;54;20985;31
2022/06/25 02:11:12;;;;;;;5.15;3.55;;;20.70;99.90;;;;;;2585547;54;20032;31
2022/06/25 02:13:46;;;;;;;4.38;3.42;;;20.70;99.90;;;;;;2585514;54;20030;31
2022/06/25 02:16:20;;;;;;;6.50;3.30;;;20.60;99.90;;;;;;2603879;46;20784;31
2022/06/25 02:18:53;;;;;;;4.75;3.05;;;20.70;99.90;;;;;;2585227;54;20069;31
2022/06/25 02:21:27;;;;;;;4.90;3.40;;;20.60;99.90;;;;;;2604085;46;20110;31
2022/06/25 02:24:02;;;;;;;7.97;3.45;;;20.60;99.90;;;;;;2585401;54;20100;31
2022/06/25 02:26:37;;;;;;;5.57;3.17;;;20.70;99.90;;;;;;2603840;46;21028;31
2022/06/25 02:29:10;;;;;;;6.55;3.60;;;20.70;99.90;;;;;;2585576;54;20029;31
2022/06/25 02:31:44;;;;;;;6.07;3.40;;;20.70;99.90;;;;;;2585479;54;20967;31
2022/06/25 02:34:17;;;;;;;5.47;3.60;;;20.70;99.90;;;;;;2585350;54;22441;31
2022/06/25 02:36:50;;;;;;;5.30;3.10;;;20.60;99.90;;;;;;2585171;54;20049;31
2022/06/25 02:39:25;;;;;;;4.75;2.80;;;20.60;99.90;;;;;;2584795;54;20033;31
2022/06/25 02:42:02;;;;;;;4.03;3.38;;;20.60;99.90;;;;;;2585023;54;20030;31
2022/06/25 02:44:38;;;;;;;6.85;3.20;;;20.60;99.90;;;;;;2589397;46;20996;31
2022/06/25 02:47:11;;;;;;;3.65;3.10;;;20.60;99.90;;;;;;2585070;54;21007;31
2022/06/25 02:50:04;;;;;;;5.57;2.78;;;20.60;99.90;;;;;;2585189;54;20034;31
2022/06/25 02:52:37;;;;;;;3.92;3.45;;;20.60;99.90;;;;;;2585309;54;20959;31
2022/06/25 02:55:14;;;;;;;5.60;3.35;;;20.60;99.90;;;;;;2584943;54;20026;31
2022/06/25 03:00:47;;;;;;;4.63;2.90;;;20.60;99.90;;;;;;2585218;54;20022;31
2022/06/25 03:03:24;;;;;;;;;;;20.50;99.90;;;;;;2585372;54;20851;31
2022/06/25 03:06:04;;;;;;;5.22;3.03;;;20.50;99.90;;;;;;2585004;54;20752;31
2022/06/25 03:08:37;;;;;;;5.10;3.53;;;20.50;99.90;;;;;;2585286;54;20944;31
2022/06/25 03:11:12;;;;;;;4.55;2.70;;;20.40;99.90;;;;;;2603422;47;21048;31
2022/06/25 03:13:50;;;;;;;3.75;2.85;;;20.40;99.90;;;;;;2585149;54;20957;31
2022/06/25 03:16:23;;;;;;;4.00;2.80;;;20.50;99.90;;;;;;2585035;54;21261;31
2022/06/25 03:19:01;;;;;;;4.25;2.70;;;20.40;99.90;;;;;;2584959;54;20030;31
2022/06/25 03:21:58;;;;;;;3.65;2.70;;;20.40;99.90;;;;;;2585087;54;20837;31
2022/06/25 03:24:31;;;;;;;7.00;3.20;;;20.40;99.90;;;;;;2603855;47;20064;31
2022/06/25 03:27:04;;;;;;;7.25;3.45;;;20.40;99.90;;;;;;2603594;47;22421;31
2022/06/25 03:29:41;;;;;;;3.63;2.92;;;20.40;99.90;;;;;;2585224;54;22432;31
2022/06/25 03:32:15;;;;;;;5.15;2.60;;;20.40;99.90;;;;;;2584986;54;20775;31
2022/06/25 03:35:13;;;;;;;8.48;3.30;;;20.40;99.90;;;;;;2603058;47;20157;31
2022/06/25 03:38:02;;;;;;;3.70;3.05;;;20.40;99.90;;;;;;2585000;54;20899;31
2022/06/25 03:40:37;;;;;;;3.33;3.03;;;20.40;99.90;;;;;;2585216;54;20082;31
2022/06/25 03:43:15;;;;;;;3.35;2.60;;;20.40;99.90;;;;;;2603263;47;20027;31
2022/06/25 03:45:56;;;;;;;5.57;3.03;;;20.40;99.90;;;;;;2603377;47;20994;31
2022/06/25 03:48:30;;;;;;;5.07;3.00;;;20.50;99.90;;;;;;2585143;54;19947;31
2022/06/25 03:51:28;;;;;;;5.55;3.38;;;20.50;99.90;;;;;;2585846;54;20941;31
2022/06/25 03:54:06;;;;;;;4.95;3.05;;;20.50;99.90;;;;;;2585777;54;20050;31
2022/06/25 03:56:38;;;;;;;3.53;3.20;;;20.50;99.90;;;;;;2585661;54;20906;31
2022/06/25 03:59:12;;;;;;;5.70;3.40;;;20.50;99.90;;;;;;2585824;54;20088;31
2022/06/25 04:01:53;;;;;;;3.80;3.00;;;20.50;99.90;;;;;;2585631;54;20238;31
2022/06/25 04:04:28;;;;;;;5.60;3.05;;;20.50;99.90;;;;;;2604166;46;20994;31
2022/06/25 04:07:01;;;;;;;3.83;3.20;;;20.50;99.90;;;;;;2585860;54;20944;31
2022/06/25 04:09:35;;;;;;;5.88;3.38;;;20.60;99.90;;;;;;2585872;54;21009;31
2022/06/25 04:12:09;;;;;;;5.90;3.43;;;20.60;99.90;;;;;;2586154;54;21157;31
2022/06/25 04:14:42;;;;;;;5.15;3.50;;;20.60;99.90;;;;;;2604375;46;20871;31
2022/06/25 04:17:18;;;;;;;5.05;3.50;;;20.60;99.90;;;;;;2585796;54;20023;31
2022/06/25 04:19:52;;;;;;;4.30;2.90;;;20.70;99.90;;;;;;2585636;54;20030;31
2022/06/25 04:22:27;;;;;;;4.50;3.60;;;20.70;99.90;;;;;;2585692;54;20909;31
2022/06/25 04:25:00;;;;;;;3.45;3.05;;;20.70;99.90;;;;;;2585930;54;20134;31
2022/06/25 04:30:24;;;;;;;5.17;2.77;;;20.60;99.90;;;;;;2585753;54;22406;31
2022/06/25 04:33:01;;;;;;;4.00;2.70;;;20.70;99.90;;;;;;2589329;46;20243;31
2022/06/25 04:35:39;;;;;;;5.25;3.67;;;20.70;99.90;;;;;;2603653;46;21089;31
2022/06/25 04:38:32;;;;;;;6.30;3.50;;;20.70;99.90;;;;;;2585628;54;19951;31
2022/06/25 04:41:07;;;;;;;5.50;3.30;;;20.70;99.90;;;;;;2604121;46;20913;31
2022/06/25 04:43:40;;;;;;;7.57;3.40;;;20.80;99.90;;;;;;2584713;54;20093;31
2022/06/25 04:46:23;;;;;;;6.40;3.00;;;20.80;99.90;;;;;;2585802;54;20913;31
2022/06/25 04:48:58;;;;;;;4.47;3.90;;;20.90;99.90;;;;;;2585500;54;20053;31
2022/06/25 04:51:38;;;;;;;5.20;3.20;;;21.00;99.90;;;;;;2585666;54;20908;31
2022/06/25 04:54:16;;;;;;;3.70;3.00;;;21.20;99.90;;;;;;2585762;54;20033;31
2022/06/25 04:56:59;;;;;;;4.55;2.95;;;21.40;99.90;;;;;;2683335;39;21664;31
2022/06/25 04:59:32;;;;;;;4.40;3.30;;;21.80;99.90;;;;;;2604243;46;20891;31
2022/06/25 05:02:13;;;;;;;7.82;3.10;;;21.90;99.90;;;;;;2683031;39;21518;31
2022/06/25 05:04:51;;;;;;;3.65;3.13;;;22.00;99.90;;;;;;2585490;54;20046;31
2022/06/25 05:07:28;;;;;;;6.07;3.10;;;22.10;99.90;;;;;;2585834;54;21018;31
2022/06/25 05:10:01;;;;;;;5.57;3.72;;;22.20;99.90;;;;;;2585575;54;20942;31
2022/06/25 05:15:33;;;;;;;4.80;3.40;;;22.10;99.90;;;;;;2585697;54;20027;31
2022/06/25 05:18:09;;;;;;;5.70;3.47;;;22.20;99.90;;;;;;2683581;39;22317;31
2022/06/25 05:20:46;;;;;;;3.23;2.80;;;22.20;99.90;;;;;;2585685;54;20062;31
2022/06/25 05:23:31;;;;;;;5.90;3.78;;;22.20;99.90;;;;;;2584745;54;20050;31
2022/06/25 05:26:06;;;;;;;5.18;3.30;;;22.20;99.90;;;;;;2585629;54;20891;31
2022/06/25 05:28:41;;;;;;;3.70;3.22;;;22.20;99.90;;;;;;2683266;39;21326;31
2022/06/25 05:31:14;;;;;;;9.35;3.80;;;22.20;99.90;;;;;;2603092;46;20939;31
2022/06/25 05:33:49;;;;;;;5.55;3.80;;;22.10;99.90;;;;;;2585336;54;20752;31
2022/06/25 05:36:24;;;;;;;6.57;3.67;;;22.10;99.90;;;;;;2683569;39;21071;31
2022/06/25 05:39:03;;;;;;;5.45;3.85;;;22.10;99.90;;;;;;2585730;54;20031;31
2022/06/25 05:41:36;;;;;;;5.37;3.60;;;22.10;99.90;;;;;;2585527;54;20080;31
2022/06/25 05:44:11;;;;;;;5.22;4.10;;;22.10;99.90;;;;;;2585677;54;20022;31
2022/06/25 05:46:44;;;;;;;5.25;3.97;;;22.00;99.90;;;;;;2585392;54;20031;31
2022/06/25 05:49:21;;;;;;;5.85;3.45;;;22.10;99.90;;;;;;2585365;54;20968;31
2022/06/25 05:51:54;;;;;;;5.67;4.17;;;22.10;99.90;;;;;;2585796;54;20029;31
2022/06/25 05:54:31;;;;;;;5.65;3.50;;;22.10;99.90;;;;;;2604013;46;20542;31
2022/06/25 05:57:04;;;;;;;4.83;3.53;;;22.10;99.90;;;;;;2585424;54;20814;31
2022/06/25 05:59:42;;;;;;;5.90;3.67;;;22.10;99.90;;;;;;2585532;54;20593;31
2022/06/25 06:02:15;;;;;;;6.35;3.65;;;22.00;99.90;;;;;;2585222;54;20817;31
2022/06/25 06:04:49;;;;;;;5.53;4.07;;;22.00;99.90;;;;;;2585469;54;20107;31
2022/06/25 06:07:23;;;;;;;10.30;4.75;;;22.00;99.90;;;;;;2603889;46;20860;31
2022/06/25 06:10:00;;;;;;;13.37;4.37;;;22.10;99.90;;;;;;2604079;46;20121;31
2022/06/25 06:12:34;;;;;;;8.73;3.85;;;22.10;99.90;;;;;;2585207;54;20026;31
2022/06/25 06:15:09;;;;;;;6.95;4.05;;;22.10;99.90;;;;;;2585313;54;20022;31
2022/06/25 06:17:42;;;;;;;9.70;4.50;;;22.10;99.90;;;;;;2603950;46;21012;31
2022/06/25 06:20:16;;;;;;;12.20;4.55;;;22.10;99.90;;;;;;2585460;54;20069;31
2022/06/25 06:22:49;;;;;;;5.55;4.20;;;22.10;99.90;;;;;;2584960;54;20871;31
2022/06/25 06:25:26;;;;;;;6.05;3.70;;;22.10;99.90;;;;;;2603572;46;20932;31
2022/06/25 06:28:02;;;;;;;8.88;4.00;;;22.30;99.90;;;;;;2603837;46;20034;31
2022/06/25 06:30:37;;;;;;;5.95;4.50;;;22.20;99.90;;;;;;2603716;46;20779;31
2022/06/25 06:33:12;;;;;;;7.13;4.70;;;22.30;99.90;;;;;;2603936;46;20138;31
2022/06/25 06:35:46;;;;;;;6.88;4.20;;;22.30;99.90;;;;;;2603941;46;21282;31
2022/06/25 06:38:19;;;;;;;6.85;4.70;;;22.30;99.90;;;;;;2603875;46;20118;31
2022/06/25 06:40:55;;;;;;;6.20;4.40;;;22.40;99.90;;;;;;2585351;54;20031;31
2022/06/25 06:43:28;;;;;;;5.70;4.05;;;22.40;99.90;;;;;;2585185;54;20942;31
2022/06/25 06:46:02;;;;;;;8.75;4.30;;;22.50;99.90;;;;;;2603627;46;20988;31
2022/06/25 06:48:35;;;;;;;4.97;4.10;;;22.80;99.90;;;;;;2584911;54;21087;31
2022/06/25 06:51:09;;;;;;;8.02;3.67;;;23.10;99.90;;;;;;2585137;54;20030;31
2022/06/25 06:53:45;;;;;;;6.15;3.80;;;23.30;99.90;;;;;;2584335;54;20780;31
2022/06/25 06:56:46;;;;;;;7.10;4.00;;;23.80;99.90;;;;;;2584254;54;20036;31
2022/06/25 06:59:24;;;;;;;8.20;3.60;;;24.10;99.90;;;;;;2584734;54;20361;31
2022/06/25 07:01:59;;;;;;;3.70;2.77;;;24.60;99.90;;;;;;2585011;54;20027;31
2022/06/25 07:04:37;;;;;;;6.60;3.30;;;25.10;99.90;;;;;;2603414;46;20022;31
2022/06/25 07:07:15;;;;;;;7.28;3.03;;;25.60;99.90;;;;;;2585058;54;20027;31
2022/06/25 07:09:50;;;;;;;4.70;3.40;;;26.00;99.90;;;;;;2584657;54;21230;31
2022/06/25 07:12:42;;;;;;;7.10;3.60;;;26.30;99.90;;;;;;2585062;54;21035;31
2022/06/25 07:15:23;;;;;;;9.45;3.40;;;26.70;99.90;;;;;;2585249;54;20880;31
2022/06/25 07:18:03;;;;;;;7.28;3.40;;;27.00;99.90;;;;;;2603289;46;20899;31
2022/06/25 07:20:38;;;;;;;4.28;3.42;;;27.40;99.90;;;;;;2584862;54;20082;31
2022/06/25 07:23:10;;;;;;;6.10;3.10;;;27.80;99.90;;;;;;2683085;39;21062;31
2022/06/25 07:25:43;;;;;;;8.02;3.45;;;28.10;99.90;;;;;;2603663;47;20054;31
2022/06/25 07:28:21;;;;;;;4.70;2.40;;;28.40;99.90;;;;;;2585767;54;21643;31
2022/06/25 07:30:54;;;;;;;6.05;2.63;;;28.70;99.90;;;;;;2585751;54;20068;31
2022/06/25 07:33:29;;;;;;;6.50;2.58;;;28.80;99.90;;;;;;2585769;54;20114;31
2022/06/25 07:36:03;;;;;;;4.85;3.10;;;29.00;99.90;;;;;;2585541;54;20735;31
2022/06/25 07:38:38;;;;;;;4.10;2.25;;;29.30;99.90;;;;;;2585794;54;20878;31
2022/06/25 07:41:16;;;;;;;3.25;2.17;;;29.50;99.90;;;;;;2603320;46;20897;31
2022/06/25 07:43:52;;;;;;;6.43;2.65;;;29.50;99.90;;;;;;2584826;54;20068;31
2022/06/25 07:46:31;;;;;;;;;;;29.50;99.90;;;;;;2585639;54;20073;31
2022/06/25 07:49:13;;;;;;;3.63;2.58;;;29.50;99.90;;;;;;2585688;54;19935;31
2022/06/25 07:52:00;;;;;;;3.15;2.35;;;29.40;99.90;;;;;;2585491;54;20886;31
2022/06/25 07:57:30;;;;;;;3.25;2.05;;;29.80;99.90;;;;;;2585529;54;20101;31
2022/06/25 08:00:11;;;;;;;9.05;2.70;;;29.90;99.90;;;;;;2585338;54;20067;31
2022/06/25 08:02:49;;;;;;;4.45;2.50;;;30.10;99.30;;;;;;2585018;54;20962;31
2022/06/25 08:05:24;;;;;;;5.37;2.20;;;30.30;98.70;;;;;;2585696;54;20090;31
2022/06/25 08:07:58;;;;;;;4.80;2.20;;;30.40;98.50;;;;;;2585571;54;20272;31
2022/06/25 08:10:36;;;;;;;4.43;2.70;;;30.60;98.40;;;;;;2604052;46;20790;31
2022/06/25 08:13:10;;;;;;;3.70;2.22;;;30.60;98.60;;;;;;2591539;46;20918;31
2022/06/25 08:15:51;;;;;;;5.00;2.77;;;30.70;98.60;;;;;;2585471;54;20979;31
2022/06/25 08:18:27;;;;;;;5.17;2.30;;;30.50;98.30;;;;;;2585563;54;21046;31
2022/06/25 08:21:10;;;;;;;4.43;2.30;;;30.60;99.00;;;;;;2585468;54;20958;31
2022/06/25 08:23:44;;;;;;;5.93;2.50;;;30.90;98.90;;;;;;2585276;54;20309;31
2022/06/25 08:26:20;;;;;;;6.55;2.30;;;31.10;98.00;;;;;;2585513;54;20263;31
2022/06/25 08:28:55;;;;;;;3.10;2.17;;;31.00;97.70;;;;;;2585639;54;20125;31
2022/06/25 08:31:35;;;;;;;4.85;2.17;;;30.90;97.80;;;;;;2585258;54;20887;31
2022/06/25 08:34:15;;;;;;;4.03;2.45;;;31.00;97.70;;;;;;2585302;54;20846;31
2022/06/25 08:36:51;;;;;;;4.20;2.20;;;31.00;98.00;;;;;;2585316;54;19935;31
2022/06/25 08:39:26;;;;;;;2.70;1.75;;;31.10;97.50;;;;;;2585269;54;20246;31
2022/06/25 08:42:00;;;;;;;6.10;2.55;;;31.00;97.80;;;;;;2603892;46;20938;31
2022/06/25 08:44:38;;;;;;;3.42;1.73;;;31.20;97.80;;;;;;2585143;54;20157;31
2022/06/25 08:47:20;;;;;;;3.88;1.83;;;31.30;96.90;;;;;;2585375;54;20850;31
2022/06/25 08:49:57;;;;;;;3.67;2.40;;;31.50;97.00;;;;;;2683262;39;20390;31
2022/06/25 08:52:37;;;;;;;2.42;2.15;;;31.40;96.90;;;;;;2585317;54;20026;31
2022/06/25 08:55:17;;;;;;;5.32;2.58;;;31.40;97.30;;;;;;2585286;54;20125;31
2022/06/25 08:57:52;;;;;;;3.70;2.13;;;31.40;97.20;;;;;;2585284;54;20895;31
2022/06/25 09:00:27;;;;;;;3.47;2.30;;;31.40;96.90;;;;;;2585396;54;20921;31
2022/06/25 09:03:13;;;;;;;3.65;2.20;;;31.50;96.80;;;;;;2585059;54;21050;31
2022/06/25 09:05:49;;;;;;;4.87;2.10;;;31.70;96.60;;;;;;2603898;46;20026;31
2022/06/25 09:08:29;;;;;;;2.55;1.90;;;31.90;96.60;;;;;;2585330;54;21156;31
2022/06/25 09:11:08;;;;;;;3.05;1.85;;;32.20;96.40;;;;;;2585026;54;20023;31
2022/06/25 09:13:52;;;;;;;3.50;2.00;;;32.30;95.90;;;;;;2585156;54;20058;31
2022/06/25 09:16:30;;;;;;;4.40;2.10;;;32.50;95.50;;;;;;2585439;54;20813;31
2022/06/25 09:19:33;;;;;;;3.35;2.20;;;32.60;95.10;;;;;;2585595;54;20086;31
2022/06/25 09:22:07;;;;;;;4.45;2.17;;;32.50;94.50;;;;;;2683657;39;22269;31
2022/06/25 09:24:44;;;;;;;8.43;2.70;;;32.70;94.60;;;;;;2585772;54;20906;31
2022/06/25 09:27:27;;;;;;;7.27;2.43;;;32.60;94.60;;;;;;2604244;46;20897;31
2022/06/25 09:30:09;;;;;;;2.30;2.07;;;32.70;94.60;;;;;;2585492;54;20138;31
2022/06/25 09:32:51;;;;;;;2.40;1.80;;;32.70;94.70;;;;;;2585834;54;20235;31
2022/06/25 09:35:35;;;;;;;4.05;2.40;;;32.60;94.80;;;;;;2604042;46;20030;31
2022/06/25 09:38:10;;;;;;;3.72;2.15;;;32.60;94.30;;;;;;2683185;39;20400;31
2022/06/25 09:40:52;;;;;;;3.33;2.30;;;32.60;94.20;;;;;;2585922;54;20034;31
2022/06/25 09:43:27;;;;;;;3.75;2.35;;;32.70;94.40;;;;;;2603709;46;20878;31
2022/06/25 09:46:05;;;;;;;4.50;2.35;;;32.80;93.50;;;;;;2584663;54;20861;31
2022/06/25 09:48:41;;;;;;;4.05;2.30;;;32.60;92.70;;;;;;2585573;54;20054;31
2022/06/25 09:51:23;;;;;;;4.03;2.20;;;32.30;92.80;;;;;;2585497;54;20108;31
2022/06/25 09:53:58;;;;;;;5.53;2.53;;;32.50;93.00;;;;;;2584620;54;20085;31
2022/06/25 09:56:36;;;;;;;3.10;2.08;;;32.60;93.20;;;;;;2584589;54;19946;31
2022/06/25 09:59:13;;;;;;;2.90;2.40;;;32.90;92.80;;;;;;2584643;54;20093;31
2022/06/25 10:01:51;;;;;;;3.25;2.53;;;32.90;91.10;;;;;;2682307;39;21435;31
2022/06/25 10:04:27;;;;;;;5.03;2.67;;;32.70;90.70;;;;;;2599534;46;21191;31
2022/06/25 10:07:10;;;;;;;4.40;2.00;;;32.60;90.90;;;;;;2604106;46;20972;31
2022/06/25 10:09:49;;;;;;;4.15;2.30;;;32.40;91.60;;;;;;2585389;54;20277;31
2022/06/25 10:12:30;;;;;;;4.50;2.40;;;32.50;91.00;;;;;;2585642;54;20053;31
2022/06/25 10:18:01;;;;;;;4.88;3.00;;;32.40;91.30;;;;;;2585539;54;20975;31
2022/06/25 10:20:37;;;;;;;3.28;2.95;;;32.40;91.90;;;;;;2584617;54;20026;31
2022/06/25 10:23:18;;;;;;;3.78;2.78;;;32.00;91.80;;;;;;2585045;54;20030;31
2022/06/25 10:25:58;;;;;;;5.85;3.60;;;31.80;92.30;;;;;;2603403;46;20023;31
2022/06/25 10:28:41;;;;;;;3.60;2.53;;;32.00;92.80;;;;;;2585145;54;20924;31
2022/06/25 10:31:16;;;;;;;4.20;2.95;;;32.00;92.50;;;;;;2602834;46;21183;31
2022/06/25 10:33:56;;;;;;;5.07;2.77;;;32.10;92.80;;;;;;2603847;46;20030;31
2022/06/25 10:36:45;;;;;;;7.77;3.07;;;32.30;93.10;;;;;;2682587;39;21150;31
2022/06/25 10:39:44;;;;;;;3.88;2.75;;;32.30;93.10;;;;;;2586866;46;20080;31
2022/06/25 10:45:57;;;;;;;19.95;8.95;;;32.00;95.50;;;;;;2585268;54;19935;31
2022/06/25 10:51:43;;;;;;;8.65;3.30;;;31.20;95.20;;;;;;2584975;54;20706;31
2022/06/25 10:54:16;;;;;;;3.30;3.00;;;31.10;95.00;;;;;;2584925;54;19954;31
2022/06/25 10:56:55;;;;;;;5.97;3.27;;;30.90;94.70;;;;;;2603794;46;20901;31
2022/06/25 10:59:59;;;;;;;3.40;3.10;;;30.70;94.70;;;;;;2584526;54;20258;31
2022/06/25 11:02:47;;;;;;;3.80;3.43;;;30.60;94.90;;;;;;2584619;54;20125;31
2022/06/25 11:05:25;;;;;;;6.50;3.00;;;30.60;95.70;;;;;;2584882;54;21114;31
2022/06/25 11:08:00;;;;;;;4.93;3.72;;;30.70;94.80;;;;;;2584872;54;20133;31
2022/06/25 11:10:37;;;;;;;4.15;3.65;;;30.60;95.20;;;;;;2585128;54;20027;31
2022/06/25 11:13:16;;;;;;;5.33;4.07;;;30.30;95.20;;;;;;2584870;54;20034;31
2022/06/25 11:15:55;;;;;;;5.22;3.78;;;30.30;95.00;;;;;;2584648;54;20954;31
2022/06/25 11:18:32;;;;;;;5.70;3.70;;;30.30;95.20;;;;;;2681601;39;21474;31
2022/06/25 11:21:07;;;;;;;5.32;3.97;;;30.50;95.20;;;;;;2583679;54;20029;31
2022/06/25 11:23:41;;;;;;;7.57;4.43;;;30.20;94.10;;;;;;2583869;54;20803;31
2022/06/25 11:29:03;;;;;;;4.50;4.10;;;30.30;93.80;;;;;;2603380;47;21141;31
2022/06/25 11:31:44;;;;;;;4.07;3.45;;;30.30;94.20;;;;;;2584463;54;20262;31
2022/06/25 11:34:22;;;;;;;5.75;4.30;;;30.50;94.30;;;;;;2584963;54;20026;31
2022/06/25 11:37:35;;;;;;;5.77;4.07;;;30.50;94.00;;;;;;2584913;54;20059;31
2022/06/25 11:40:17;;;;;;;5.97;3.83;;;30.40;94.10;;;;;;2584297;54;20081;31
2022/06/25 11:42:54;;;;;;;4.80;3.50;;;30.40;94.00;;;;;;2584384;54;20999;31
2022/06/25 11:45:33;;;;;;;3.70;3.40;;;30.60;94.50;;;;;;2584259;54;20150;31
2022/06/25 11:48:09;;;;;;;4.20;3.10;;;30.70;94.20;;;;;;2584541;54;20239;31
2022/06/25 11:50:42;;;;;;;4.80;3.60;;;30.80;94.20;;;;;;2584869;54;20943;31
2022/06/25 11:53:18;;;;;;;8.23;3.70;;;30.90;93.50;;;;;;2583809;54;20034;31
2022/06/25 11:56:06;;;;;;;6.77;3.30;;;30.90;92.70;;;;;;2603195;47;20136;31
2022/06/25 11:58:44;;;;;;;5.13;3.50;;;30.80;93.30;;;;;;2584571;54;20900;31
2022/06/25 12:01:30;;;;;;;5.63;3.33;;;30.90;92.70;;;;;;2584887;54;20928;31
2022/06/25 12:04:04;;;;;;;5.20;2.65;;;30.90;92.10;;;;;;2584633;54;20026;31
2022/06/25 12:06:37;;;;;;;5.50;2.95;;;30.90;92.00;;;;;;2584671;54;21002;31
2022/06/25 12:09:10;;;;;;;5.78;3.58;;;30.80;92.10;;;;;;2584680;54;20821;31
2022/06/25 12:11:56;;;;;;;2.90;2.70;;;30.70;92.10;;;;;;2585059;54;20027;31
2022/06/25 12:14:32;;;;;;;4.23;2.57;;;30.60;92.10;;;;;;2585600;54;20005;31
2022/06/25 12:17:12;;;;;;;4.63;3.15;;;30.60;92.20;;;;;;2585407;54;20035;31
2022/06/25 12:19:47;;;;;;;5.35;3.10;;;30.50;92.40;;;;;;2585607;54;20026;31
2022/06/25 12:22:25;;;;;;;5.53;3.30;;;30.50;92.30;;;;;;2585559;54;20063;31
2022/06/25 12:25:00;;;;;;;5.30;3.10;;;30.50;92.80;;;;;;2585517;54;20053;31
2022/06/25 12:27:33;;;;;;;3.70;3.20;;;30.50;91.80;;;;;;2585455;54;20968;31
2022/06/25 12:30:08;;;;;;;4.20;2.87;;;30.50;92.50;;;;;;2603875;46;20032;31
2022/06/25 12:32:45;;;;;;;4.28;3.38;;;30.60;92.50;;;;;;2585510;54;21103;31
2022/06/25 12:35:20;;;;;;;7.45;2.75;;;30.60;92.20;;;;;;2585387;54;20999;31
2022/06/25 12:38:04;;;;;;;3.88;3.05;;;30.70;92.20;;;;;;2585191;54;20942;31
2022/06/25 12:40:42;;;;;;;3.43;3.10;;;30.80;92.40;;;;;;2585572;54;20934;31
2022/06/25 12:43:16;;;;;;;5.20;3.53;;;30.60;91.50;;;;;;2585582;54;20037;31
2022/06/25 12:45:54;;;;;;;5.57;3.17;;;30.60;92.20;;;;;;2604228;46;20266;31
2022/06/25 12:48:32;;;;;;;5.83;2.87;;;30.60;92.40;;;;;;2682176;39;21539;31
2022/06/25 12:51:10;;;;;;;6.50;2.80;;;30.60;91.70;;;;;;2683156;39;21414;31
2022/06/25 12:53:45;;;;;;;5.20;2.97;;;30.60;91.90;;;;;;2585428;54;20879;31
2022/06/25 12:56:19;;;;;;;3.60;3.30;;;30.60;91.80;;;;;;2585392;54;21109;31
2022/06/25 12:58:53;;;;;;;4.87;3.20;;;30.40;91.80;;;;;;2585548;54;20022;31
2022/06/25 13:01:33;;;;;;;3.70;2.92;;;30.30;92.00;;;;;;2585128;54;20062;31
2022/06/25 13:04:11;;;;;;;5.37;2.97;;;30.20;92.40;;;;;;2585366;54;20037;31
2022/06/25 13:06:43;;;;;;;3.10;2.70;;;30.20;92.30;;;;;;2585647;54;21166;31
2022/06/25 13:09:25;;;;;;;5.40;2.60;;;30.10;92.30;;;;;;2584425;54;20983;31
2022/06/25 13:11:59;;;;;;;7.40;3.50;;;30.20;92.40;;;;;;2585362;54;21198;31
2022/06/25 13:14:33;;;;;;;7.68;3.10;;;30.20;92.40;;;;;;2585282;54;20810;31
2022/06/25 13:17:06;;;;;;;4.40;2.60;;;30.20;92.30;;;;;;2603662;46;20942;31
2022/06/25 13:19:45;;;;;;;7.83;3.17;;;30.30;91.20;;;;;;2603739;46;20988;31
2022/06/25 13:22:19;;;;;;;6.75;3.17;;;30.30;90.70;;;;;;2585220;54;20257;31
2022/06/25 13:24:53;;;;;;;7.85;3.35;;;30.40;90.70;;;;;;2603812;46;20032;31
2022/06/25 13:27:26;;;;;;;7.93;3.33;;;30.50;90.30;;;;;;2585338;54;19934;31
2022/06/25 13:29:59;;;;;;;6.00;3.55;;;30.60;90.00;;;;;;2603490;46;20797;31
2022/06/25 13:32:32;;;;;;;6.05;2.95;;;30.60;89.60;;;;;;2585108;54;20038;31
2022/06/25 13:35:10;;;;;;;7.43;3.20;;;30.60;89.70;;;;;;2585269;54;20945;31
2022/06/25 13:37:43;;;;;;;4.55;3.30;;;30.60;89.20;;;;;;2584934;54;20057;31
2022/06/25 13:40:17;;;;;;;5.93;3.57;;;30.50;89.50;;;;;;2584971;54;20030;31
2022/06/25 13:42:50;;;;;;;4.72;2.78;;;30.60;89.10;;;;;;2585423;54;21245;31
2022/06/25 13:45:23;;;;;;;3.40;2.80;;;30.60;90.10;;;;;;2585104;54;20022;31
2022/06/25 13:47:56;;;;;;;3.70;2.70;;;30.70;90.00;;;;;;2585215;54;20099;31
2022/06/25 13:50:32;;;;;;;4.07;2.50;;;30.70;89.50;;;;;;2585176;54;20047;31
2022/06/25 13:53:06;;;;;;;6.65;2.42;;;30.70;89.60;;;;;;2585199;54;20030;31
2022/06/25 13:55:40;;;;;;;6.50;2.70;;;30.70;89.60;;;;;;2585325;54;20880;31
2022/06/25 13:58:14;;;;;;;5.45;3.00;;;30.80;89.90;;;;;;2585287;54;20335;31
2022/06/25 14:00:47;;;;;;;5.00;2.50;;;30.70;90.00;;;;;;2585200;54;20063;31
2022/06/25 14:03:20;;;;;;;7.47;2.50;;;30.80;89.70;;;;;;2603515;46;20964;31
2022/06/25 14:05:57;;;;;;;6.05;2.60;;;30.70;89.90;;;;;;2585134;54;20242;31
2022/06/25 14:08:31;;;;;;;3.75;2.40;;;30.60;90.00;;;;;;2585134;54;20031;31
2022/06/25 14:11:04;;;;;;;7.30;2.90;;;30.60;90.20;;;;;;2585141;54;19956;31
2022/06/25 14:13:37;;;;;;;6.72;2.88;;;30.60;90.60;;;;;;2585104;54;20804;31
2022/06/25 14:16:11;;;;;;;5.35;2.65;;;30.60;91.00;;;;;;2603577;46;20776;31